sensor_id;sensor_type;location;lat;lon;timestamp;pressure;altitude;pressure_sealevel;temperature;humidity
77299;BME280;66361;52.034;20.656;2023-11-21T00:03:11;99081.44;;;1.00;100.00
77299;BME280;66361;52.034;20.656;2023-11-21T00:07:16;99086.28;;;0.87;100.00
77299;BME280;66361;52.034;20.656;2023-11-21T00:11:19;99092.25;;;0.89;100.00
77299;BME280;66361;52.034;20.656;2023-11-21T00:15:24;99091.34;;;0.90;100.00
77299;BME280;66361;52.034;20.656;2023-11-21T00:19:28;99093.47;;;0.81;100.00
77299;BME280;66361;52.034;20.656;2023-11-21T00:23:31;99101.38;;;0.78;100.00
77299;BME280;66361;52.034;20.656;2023-11-21T00:27:34;99110.13;;;0.75;100.00
77299;BME280;66361;52.034;20.656;2023-11-21T00:31:39;99117.22;;;0.72;100.00
77299;BME280;66361;52.034;20.656;2023-11-21T00:35:42;99113.59;;;0.76;100.00
77299;BME280;66361;52.034;20.656;2023-11-21T00:39:45;99121.63;;;0.70;100.00
77299;BME280;66361;52.034;20.656;2023-11-21T00:43:48;99126.75;;;0.71;100.00
77299;BME280;66361;52.034;20.656;2023-11-21T00:47:53;99128.50;;;0.71;100.00
77299;BME280;66361;52.034;20.656;2023-11-21T00:51:57;99114.72;;;0.69;100.00
77299;BME280;66361;52.034;20.656;2023-11-21T00:56:00;99105.41;;;0.63;100.00
77299;BME280;66361;52.034;20.656;2023-11-21T01:00:05;99118.53;;;0.60;100.00
77299;BME280;66361;52.034;20.656;2023-11-21T01:04:14;99116.78;;;0.61;100.00
77299;BME280;66361;52.034;20.656;2023-11-21T01:08:17;99116.19;;;0.54;100.00
77299;BME280;66361;52.034;20.656;2023-11-21T01:12:20;99118.53;;;0.60;100.00
77299;BME280;66361;52.034;20.656;2023-11-21T01:16:23;99127.34;;;0.56;100.00
77299;BME280;66361;52.034;20.656;2023-11-21T01:20:28;99134.09;;;0.60;100.00
77299;BME280;66361;52.034;20.656;2023-11-21T01:24:31;99143.47;;;0.64;100.00
77299;BME280;66361;52.034;20.656;2023-11-21T01:28:35;99139.31;;;0.60;100.00
77299;BME280;66361;52.034;20.656;2023-11-21T01:32:38;99142.78;;;0.59;100.00
77299;BME280;66361;52.034;20.656;2023-11-21T01:36:45;99136.03;;;0.55;100.00
77299;BME280;66361;52.034;20.656;2023-11-21T01:40:48;99131.75;;;0.54;100.00
77299;BME280;66361;52.034;20.656;2023-11-21T01:44:52;99128.06;;;0.60;100.00
77299;BME280;66361;52.034;20.656;2023-11-21T01:48:56;99132.41;;;0.59;100.00
77299;BME280;66361;52.034;20.656;2023-11-21T01:53:00;99128.25;;;0.55;100.00
77299;BME280;66361;52.034;20.656;2023-11-21T01:57:05;99136.81;;;0.57;100.00
77299;BME280;66361;52.034;20.656;2023-11-21T02:01:13;99137.81;;;0.55;100.00
77299;BME280;66361;52.034;20.656;2023-11-21T02:05:18;99132.91;;;0.47;100.00
77299;BME280;66361;52.034;20.656;2023-11-21T02:09:26;99140.78;;;0.44;100.00
77299;BME280;66361;52.034;20.656;2023-11-21T02:13:30;99146.09;;;0.41;100.00
77299;BME280;66361;52.034;20.656;2023-11-21T02:17:36;99140.91;;;0.41;100.00
77299;BME280;66361;52.034;20.656;2023-11-21T02:21:39;99151.84;;;0.49;100.00
77299;BME280;66361;52.034;20.656;2023-11-21T02:25:44;99144.94;;;0.48;100.00
77299;BME280;66361;52.034;20.656;2023-11-21T02:29:49;99155.47;;;0.45;100.00
77299;BME280;66361;52.034;20.656;2023-11-21T02:33:52;99159.75;;;0.46;100.00
77299;BME280;66361;52.034;20.656;2023-11-21T02:37:55;99153.09;;;0.39;100.00
77299;BME280;66361;52.034;20.656;2023-11-21T02:42:00;99160.09;;;0.37;100.00
77299;BME280;66361;52.034;20.656;2023-11-21T02:46:03;99162.75;;;0.35;100.00
77299;BME280;66361;52.034;20.656;2023-11-21T02:50:07;99173.91;;;0.37;100.00
77299;BME280;66361;52.034;20.656;2023-11-21T02:54:11;99179.19;;;0.36;100.00
77299;BME280;66361;52.034;20.656;2023-11-21T02:58:16;99173.03;;;0.38;100.00
77299;BME280;66361;52.034;20.656;2023-11-21T03:02:19;99171.19;;;0.40;100.00
77299;BME280;66361;52.034;20.656;2023-11-21T03:06:22;99169.56;;;0.38;100.00
77299;BME280;66361;52.034;20.656;2023-11-21T03:10:26;99172.41;;;0.32;100.00
77299;BME280;66361;52.034;20.656;2023-11-21T03:14:30;99174.44;;;0.24;100.00
77299;BME280;66361;52.034;20.656;2023-11-21T03:18:34;99171.88;;;0.22;100.00
77299;BME280;66361;52.034;20.656;2023-11-21T03:22:38;99172.03;;;0.18;100.00
77299;BME280;66361;52.034;20.656;2023-11-21T03:26:41;99178.00;;;0.21;100.00
77299;BME280;66361;52.034;20.656;2023-11-21T03:30:46;99185.88;;;0.18;100.00
77299;BME280;66361;52.034;20.656;2023-11-21T03:34:54;99192.19;;;0.11;100.00
77299;BME280;66361;52.034;20.656;2023-11-21T03:38:58;99203.19;;;0.18;100.00
77299;BME280;66361;52.034;20.656;2023-11-21T03:43:01;99202.69;;;0.08;100.00
77299;BME280;66361;52.034;20.656;2023-11-21T03:47:06;99202.91;;;0.02;100.00
77299;BME280;66361;52.034;20.656;2023-11-21T03:51:09;99204.69;;;-0.00;100.00
77299;BME280;66361;52.034;20.656;2023-11-21T03:55:12;99199.38;;;0.03;100.00
77299;BME280;66361;52.034;20.656;2023-11-21T03:59:16;99202.22;;;-0.03;100.00
77299;BME280;66361;52.034;20.656;2023-11-21T04:03:21;99214.19;;;0.01;100.00
77299;BME280;66361;52.034;20.656;2023-11-21T04:07:24;99221.34;;;-0.06;100.00
77299;BME280;66361;52.034;20.656;2023-11-21T04:11:27;99224.06;;;-0.10;100.00
77299;BME280;66361;52.034;20.656;2023-11-21T04:15:31;99224.06;;;-0.10;100.00
77299;BME280;66361;52.034;20.656;2023-11-21T04:19:36;99220.84;;;-0.17;100.00
77299;BME280;66361;52.034;20.656;2023-11-21T04:23:39;99234.75;;;-0.19;100.00
77299;BME280;66361;52.034;20.656;2023-11-21T04:27:44;99230.53;;;-0.22;100.00
77299;BME280;66361;52.034;20.656;2023-11-21T04:31:47;99242.38;;;-0.15;100.00
77299;BME280;66361;52.034;20.656;2023-11-21T04:35:52;99243.59;;;-0.25;100.00
77299;BME280;66361;52.034;20.656;2023-11-21T04:39:55;99251.22;;;-0.20;100.00
77299;BME280;66361;52.034;20.656;2023-11-21T04:43:58;99244.22;;;-0.18;100.00
77299;BME280;66361;52.034;20.656;2023-11-21T04:48:03;99252.97;;;-0.21;100.00
77299;BME280;66361;52.034;20.656;2023-11-21T04:52:09;99257.22;;;-0.20;100.00
77299;BME280;66361;52.034;20.656;2023-11-21T04:56:12;99263.22;;;-0.18;100.00
77299;BME280;66361;52.034;20.656;2023-11-21T05:00:18;99256.44;;;-0.22;100.00
77299;BME280;66361;52.034;20.656;2023-11-21T05:04:22;99252.13;;;-0.21;100.00
77299;BME280;66361;52.034;20.656;2023-11-21T05:08:27;99247.09;;;-0.26;100.00
77299;BME280;66361;52.034;20.656;2023-11-21T05:12:31;99244.38;;;-0.23;100.00
77299;BME280;66361;52.034;20.656;2023-11-21T05:16:36;99263.78;;;-0.34;100.00
77299;BME280;66361;52.034;20.656;2023-11-21T05:20:39;99277.41;;;-0.28;100.00
77299;BME280;66361;52.034;20.656;2023-11-21T05:24:45;99283.63;;;-0.33;100.00
77299;BME280;66361;52.034;20.656;2023-11-21T05:28:48;99294.03;;;-0.35;100.00
77299;BME280;66361;52.034;20.656;2023-11-21T05:32:51;99296.63;;;-0.35;100.00
77299;BME280;66361;52.034;20.656;2023-11-21T05:36:55;99296.00;;;-0.41;100.00
77299;BME280;66361;52.034;20.656;2023-11-21T05:41:01;99304.69;;;-0.42;100.00
77299;BME280;66361;52.034;20.656;2023-11-21T05:45:08;99303.09;;;-0.47;100.00
77299;BME280;66361;52.034;20.656;2023-11-21T05:49:13;99310.00;;;-0.47;100.00
77299;BME280;66361;52.034;20.656;2023-11-21T05:53:17;99312.63;;;-0.49;100.00
77299;BME280;66361;52.034;20.656;2023-11-21T05:57:21;99324.75;;;-0.49;100.00
77299;BME280;66361;52.034;20.656;2023-11-21T06:01:24;99324.84;;;-0.52;100.00
77299;BME280;66361;52.034;20.656;2023-11-21T06:05:29;99315.44;;;-0.55;100.00
77299;BME280;66361;52.034;20.656;2023-11-21T06:09:33;99320.41;;;-0.49;100.00
77299;BME280;66361;52.034;20.656;2023-11-21T06:13:41;99314.34;;;-0.48;100.00
77299;BME280;66361;52.034;20.656;2023-11-21T06:17:44;99336.06;;;-0.52;100.00
77299;BME280;66361;52.034;20.656;2023-11-21T06:21:51;99342.34;;;-0.59;100.00
77299;BME280;66361;52.034;20.656;2023-11-21T06:25:54;99358.13;;;-0.66;100.00
77299;BME280;66361;52.034;20.656;2023-11-21T06:29:58;99359.81;;;-0.65;100.00
77299;BME280;66361;52.034;20.656;2023-11-21T06:34:01;99361.50;;;-0.64;100.00
77299;BME280;66361;52.034;20.656;2023-11-21T06:38:04;99368.28;;;-0.60;100.00
77299;BME280;66361;52.034;20.656;2023-11-21T06:42:08;99369.94;;;-0.58;100.00
77299;BME280;66361;52.034;20.656;2023-11-21T06:46:12;99371.50;;;-0.52;100.00
77299;BME280;66361;52.034;20.656;2023-11-21T06:50:16;99371.50;;;-0.52;100.00
77299;BME280;66361;52.034;20.656;2023-11-21T06:54:24;99376.91;;;-0.60;100.00
77299;BME280;66361;52.034;20.656;2023-11-21T06:58:27;99387.00;;;-0.51;100.00
77299;BME280;66361;52.034;20.656;2023-11-21T07:02:31;99384.47;;;-0.54;100.00
77299;BME280;66361;52.034;20.656;2023-11-21T07:06:35;99389.50;;;-0.48;100.00
77299;BME280;66361;52.034;20.656;2023-11-21T07:10:38;99398.34;;;-0.55;100.00
77299;BME280;66361;52.034;20.656;2023-11-21T07:14:41;99394.72;;;-0.49;100.00
77299;BME280;66361;52.034;20.656;2023-11-21T07:18:47;99403.13;;;-0.41;100.00
77299;BME280;66361;52.034;20.656;2023-11-21T07:22:50;99406.88;;;-0.51;100.00
77299;BME280;66361;52.034;20.656;2023-11-21T07:26:53;99409.59;;;-0.56;100.00
77299;BME280;66361;52.034;20.656;2023-11-21T07:30:58;99412.06;;;-0.51;100.00
77299;BME280;66361;52.034;20.656;2023-11-21T07:35:03;99426.78;;;-0.52;100.00
77299;BME280;66361;52.034;20.656;2023-11-21T07:39:06;99430.22;;;-0.51;100.00
77299;BME280;66361;52.034;20.656;2023-11-21T07:43:09;99431.22;;;-0.57;100.00
77299;BME280;66361;52.034;20.656;2023-11-21T07:47:12;99428.59;;;-0.55;100.00
77299;BME280;66361;52.034;20.656;2023-11-21T07:51:17;99433.66;;;-0.51;100.00
77299;BME280;66361;52.034;20.656;2023-11-21T07:55:20;99419.84;;;-0.51;100.00
77299;BME280;66361;52.034;20.656;2023-11-21T07:59:22;99415.59;;;-0.54;100.00
77299;BME280;66361;52.034;20.656;2023-11-21T08:03:26;99420.63;;;-0.49;100.00
77299;BME280;66361;52.034;20.656;2023-11-21T08:07:33;99428.41;;;-0.49;100.00
77299;BME280;66361;52.034;20.656;2023-11-21T08:11:39;99429.34;;;-0.52;100.00
77299;BME280;66361;52.034;20.656;2023-11-21T08:15:50;99432.91;;;-0.54;100.00
77299;BME280;66361;52.034;20.656;2023-11-21T08:19:53;99434.41;;;-0.47;100.00
77299;BME280;66361;52.034;20.656;2023-11-21T08:23:58;99437.75;;;-0.43;100.00
77299;BME280;66361;52.034;20.656;2023-11-21T08:28:02;99453.84;;;-0.32;100.00
77299;BME280;66361;52.034;20.656;2023-11-21T08:32:06;99455.84;;;-0.42;100.00
77299;BME280;66361;52.034;20.656;2023-11-21T08:36:09;99464.34;;;-0.37;100.00
77299;BME280;66361;52.034;20.656;2023-11-21T08:40:17;99458.84;;;-0.26;100.00
77299;BME280;66361;52.034;20.656;2023-11-21T08:44:20;99466.66;;;-0.28;100.00
77299;BME280;66361;52.034;20.656;2023-11-21T08:48:24;99465.81;;;-0.28;100.00
77299;BME280;66361;52.034;20.656;2023-11-21T08:52:27;99467.59;;;-0.30;100.00
77299;BME280;66361;52.034;20.656;2023-11-21T08:56:32;99468.81;;;-0.42;100.00
77299;BME280;66361;52.034;20.656;2023-11-21T09:00:35;99485.13;;;-0.38;100.00
77299;BME280;66361;52.034;20.656;2023-11-21T09:04:39;99484.41;;;-0.43;100.00
77299;BME280;66361;52.034;20.656;2023-11-21T09:08:44;99488.47;;;-0.35;100.00
77299;BME280;66361;52.034;20.656;2023-11-21T09:12:48;99488.53;;;-0.36;100.00
77299;BME280;66361;52.034;20.656;2023-11-21T09:16:51;99489.69;;;-0.47;100.00
77299;BME280;66361;52.034;20.656;2023-11-21T09:20:54;99486.34;;;-0.50;100.00
77299;BME280;66361;52.034;20.656;2023-11-21T09:24:57;99488.88;;;-0.49;100.00
77299;BME280;66361;52.034;20.656;2023-11-21T09:29:01;99489.63;;;-0.45;100.00
77299;BME280;66361;52.034;20.656;2023-11-21T09:33:04;99492.72;;;-0.32;100.00
77299;BME280;66361;52.034;20.656;2023-11-21T09:37:10;99500.81;;;-0.43;100.00
77299;BME280;66361;52.034;20.656;2023-11-21T09:41:21;99493.41;;;-0.27;100.00
77299;BME280;66361;52.034;20.656;2023-11-21T09:45:28;99500.63;;;-0.37;100.00
77299;BME280;66361;52.034;20.656;2023-11-21T09:49:34;99497.72;;;-0.26;100.00
77299;BME280;66361;52.034;20.656;2023-11-21T09:53:43;99498.69;;;-0.30;100.00
77299;BME280;66361;52.034;20.656;2023-11-21T09:57:48;99498.56;;;-0.26;100.00
77299;BME280;66361;52.034;20.656;2023-11-21T10:01:53;99504.63;;;-0.25;100.00
77299;BME280;66361;52.034;20.656;2023-11-21T10:05:56;99507.06;;;-0.21;100.00
77299;BME280;66361;52.034;20.656;2023-11-21T10:10:01;99512.03;;;-0.13;100.00
77299;BME280;66361;52.034;20.656;2023-11-21T10:14:05;99518.47;;;-0.26;100.00
77299;BME280;66361;52.034;20.656;2023-11-21T10:18:09;99514.97;;;-0.25;100.00
77299;BME280;66361;52.034;20.656;2023-11-21T10:22:14;99517.59;;;-0.27;100.00
77299;BME280;66361;52.034;20.656;2023-11-21T10:26:20;99519.50;;;-0.32;100.00
77299;BME280;66361;52.034;20.656;2023-11-21T10:30:35;99523.19;;;-0.39;100.00
77299;BME280;66361;52.034;20.656;2023-11-21T10:34:41;99519.34;;;-0.27;100.00
77299;BME280;66361;52.034;20.656;2023-11-21T10:38:44;99516.75;;;-0.27;100.00
77299;BME280;66361;52.034;20.656;2023-11-21T10:42:51;99522.72;;;-0.24;100.00
77299;BME280;66361;52.034;20.656;2023-11-21T10:46:55;99526.16;;;-0.23;100.00
77299;BME280;66361;52.034;20.656;2023-11-21T10:51:06;99528.81;;;-0.25;100.00
77299;BME280;66361;52.034;20.656;2023-11-21T10:55:16;99526.25;;;-0.26;100.00
77299;BME280;66361;52.034;20.656;2023-11-21T10:59:21;99538.84;;;-0.43;100.00
77299;BME280;66361;52.034;20.656;2023-11-21T11:03:27;99524.69;;;-0.32;100.00
77299;BME280;66361;52.034;20.656;2023-11-21T11:07:32;99526.75;;;-0.43;100.00
77299;BME280;66361;52.034;20.656;2023-11-21T11:11:37;99536.53;;;-0.23;100.00
77299;BME280;66361;52.034;20.656;2023-11-21T11:15:42;99538.00;;;-0.15;100.00
77299;BME280;66361;52.034;20.656;2023-11-21T11:19:49;99536.53;;;-0.23;100.00
77299;BME280;66361;52.034;20.656;2023-11-21T11:24:05;99538.19;;;-0.21;100.00
77299;BME280;66361;52.034;20.656;2023-11-21T11:28:17;99540.41;;;-0.09;100.00
77299;BME280;66361;52.034;20.656;2023-11-21T11:32:27;99543.91;;;-0.10;100.00
77299;BME280;66361;52.034;20.656;2023-11-21T11:36:39;99550.94;;;-0.13;100.00
77299;BME280;66361;52.034;20.656;2023-11-21T11:40:52;99550.88;;;-0.12;100.00
77299;BME280;66361;52.034;20.656;2023-11-21T11:44:55;99552.59;;;-0.11;100.00
77299;BME280;66361;52.034;20.656;2023-11-21T11:49:02;99552.38;;;-0.05;100.00
77299;BME280;66361;52.034;20.656;2023-11-21T11:53:13;99551.72;;;-0.11;100.00
77299;BME280;66361;52.034;20.656;2023-11-21T11:57:18;99556.16;;;-0.15;100.00
77299;BME280;66361;52.034;20.656;2023-11-21T12:01:22;99559.41;;;-0.08;100.00
77299;BME280;66361;52.034;20.656;2023-11-21T12:05:27;99557.97;;;-0.17;100.00
77299;BME280;66361;52.034;20.656;2023-11-21T12:09:31;99560.69;;;-0.21;100.00
77299;BME280;66361;52.034;20.656;2023-11-21T12:13:36;99571.75;;;-0.16;100.00
77299;BME280;66361;52.034;20.656;2023-11-21T12:17:40;99561.47;;;-0.19;100.00
77299;BME280;66361;52.034;20.656;2023-11-21T12:21:44;99570.00;;;-0.16;100.00
77299;BME280;66361;52.034;20.656;2023-11-21T12:25:48;99579.63;;;-0.19;100.00
77299;BME280;66361;52.034;20.656;2023-11-21T12:29:53;99581.69;;;-0.01;100.00
77299;BME280;66361;52.034;20.656;2023-11-21T12:33:58;99565.69;;;-0.15;100.00
77299;BME280;66361;52.034;20.656;2023-11-21T12:38:03;99583.19;;;-0.23;100.00
77299;BME280;66361;52.034;20.656;2023-11-21T12:42:07;99576.22;;;-0.21;100.00
77299;BME280;66361;52.034;20.656;2023-11-21T12:46:12;99581.72;;;-0.32;100.00
77299;BME280;66361;52.034;20.656;2023-11-21T12:50:19;99591.06;;;-0.26;100.00
77299;BME280;66361;52.034;20.656;2023-11-21T12:54:25;99592.22;;;-0.36;100.00
77299;BME280;66361;52.034;20.656;2023-11-21T12:58:28;99596.56;;;-0.37;100.00
77299;BME280;66361;52.034;20.656;2023-11-21T13:02:33;99607.09;;;-0.43;100.00
77299;BME280;66361;52.034;20.656;2023-11-21T13:06:39;99607.16;;;-0.46;100.00
77299;BME280;66361;52.034;20.656;2023-11-21T13:10:44;99604.63;;;-0.48;100.00
77299;BME280;66361;52.034;20.656;2023-11-21T13:14:48;99607.16;;;-0.46;100.00
77299;BME280;66361;52.034;20.656;2023-11-21T13:18:53;99612.31;;;-0.44;100.00
77299;BME280;66361;52.034;20.656;2023-11-21T13:22:56;99610.56;;;-0.44;100.00
77299;BME280;66361;52.034;20.656;2023-11-21T13:27:01;99618.53;;;-0.50;100.00
77299;BME280;66361;52.034;20.656;2023-11-21T13:31:05;99634.78;;;-0.45;100.00
77299;BME280;66361;52.034;20.656;2023-11-21T13:35:24;99647.72;;;-0.43;100.00
77299;BME280;66361;52.034;20.656;2023-11-21T13:39:35;99650.41;;;-0.48;100.00
77299;BME280;66361;52.034;20.656;2023-11-21T13:43:39;99660.00;;;-0.50;100.00
77299;BME280;66361;52.034;20.656;2023-11-21T13:47:45;99665.22;;;-0.53;100.00
77299;BME280;66361;52.034;20.656;2023-11-21T13:51:50;99670.47;;;-0.55;100.00
77299;BME280;66361;52.034;20.656;2023-11-21T13:55:57;99687.78;;;-0.57;100.00
77299;BME280;66361;52.034;20.656;2023-11-21T14:00:00;99694.72;;;-0.57;100.00
77299;BME280;66361;52.034;20.656;2023-11-21T14:04:03;99700.94;;;-0.64;100.00
77299;BME280;66361;52.034;20.656;2023-11-21T14:08:22;99704.47;;;-0.67;100.00
77299;BME280;66361;52.034;20.656;2023-11-21T14:12:30;99715.78;;;-0.71;100.00
77299;BME280;66361;52.034;20.656;2023-11-21T14:16:40;99727.69;;;-0.64;100.00
77299;BME280;66361;52.034;20.656;2023-11-21T14:20:58;99731.34;;;-0.72;100.00
77299;BME280;66361;52.034;20.656;2023-11-21T14:25:04;99734.88;;;-0.73;100.00
77299;BME280;66361;52.034;20.656;2023-11-21T14:29:07;99748.78;;;-0.79;100.00
77299;BME280;66361;52.034;20.656;2023-11-21T14:33:14;99755.78;;;-0.82;100.00
77299;BME280;66361;52.034;20.656;2023-11-21T14:37:17;99753.19;;;-0.81;100.00
77299;BME280;66361;52.034;20.656;2023-11-21T14:41:23;99765.28;;;-0.81;100.00
77299;BME280;66361;52.034;20.656;2023-11-21T14:45:29;99770.47;;;-0.81;100.00
77299;BME280;66361;52.034;20.656;2023-11-21T14:49:32;99769.56;;;-0.80;100.00
77299;BME280;66361;52.034;20.656;2023-11-21T14:53:49;99772.97;;;-0.78;100.00
77299;BME280;66361;52.034;20.656;2023-11-21T14:57:58;99777.28;;;-0.77;100.00
77299;BME280;66361;52.034;20.656;2023-11-21T15:02:06;99780.06;;;-0.86;100.00
77299;BME280;66361;52.034;20.656;2023-11-21T15:06:18;99779.94;;;-0.80;100.00
77299;BME280;66361;52.034;20.656;2023-11-21T15:10:28;99774.94;;;-0.88;100.00
77299;BME280;66361;52.034;20.656;2023-11-21T15:14:43;99786.25;;;-0.92;100.00
77299;BME280;66361;52.034;20.656;2023-11-21T15:18:49;99787.13;;;-0.93;100.00
77299;BME280;66361;52.034;20.656;2023-11-21T15:22:52;99792.31;;;-0.95;100.00
77299;BME280;66361;52.034;20.656;2023-11-21T15:26:55;99794.81;;;-0.90;100.00
77299;BME280;66361;52.034;20.656;2023-11-21T15:31:01;99807.00;;;-0.93;100.00
77299;BME280;66361;52.034;20.656;2023-11-21T15:35:05;99809.59;;;-0.93;100.00
77299;BME280;66361;52.034;20.656;2023-11-21T15:39:11;99805.22;;;-0.91;100.00
77299;BME280;66361;52.034;20.656;2023-11-21T15:43:15;99806.97;;;-0.92;100.00
77299;BME280;66361;52.034;20.656;2023-11-21T15:47:19;99818.03;;;-0.85;100.00
77299;BME280;66361;52.034;20.656;2023-11-21T15:51:23;99830.22;;;-0.89;100.00
77299;BME280;66361;52.034;20.656;2023-11-21T15:55:26;99822.50;;;-0.92;100.00
77299;BME280;66361;52.034;20.656;2023-11-21T15:59:30;99836.34;;;-0.95;100.00
77299;BME280;66361;52.034;20.656;2023-11-21T16:03:37;99846.06;;;-1.03;100.00
77299;BME280;66361;52.034;20.656;2023-11-21T16:07:41;99847.66;;;-0.99;100.00
77299;BME280;66361;52.034;20.656;2023-11-21T16:11:45;99866.78;;;-1.03;100.00
77299;BME280;66361;52.034;20.656;2023-11-21T16:15:48;99868.38;;;-0.99;100.00
77299;BME280;66361;52.034;20.656;2023-11-21T16:19:54;99870.09;;;-0.98;100.00
77299;BME280;66361;52.034;20.656;2023-11-21T16:23:57;99882.16;;;-0.95;100.00
77299;BME280;66361;52.034;20.656;2023-11-21T16:28:01;99875.28;;;-0.98;100.00
77299;BME280;66361;52.034;20.656;2023-11-21T16:32:06;99883.97;;;-1.00;100.00
77299;BME280;66361;52.034;20.656;2023-11-21T16:36:12;99883.09;;;-0.99;100.00
77299;BME280;66361;52.034;20.656;2023-11-21T16:40:15;99877.97;;;-1.02;100.00
77299;BME280;66361;52.034;20.656;2023-11-21T16:44:21;99889.16;;;-1.02;100.00
77299;BME280;66361;52.034;20.656;2023-11-21T16:48:25;99884.09;;;-1.06;100.00
77299;BME280;66361;52.034;20.656;2023-11-21T16:52:29;99898.78;;;-1.07;100.00
77299;BME280;66361;52.034;20.656;2023-11-21T16:56:32;99903.19;;;-1.12;100.00
77299;BME280;66361;52.034;20.656;2023-11-21T17:00:36;99904.94;;;-1.12;100.00
77299;BME280;66361;52.034;20.656;2023-11-21T17:04:39;99905.81;;;-1.13;100.00
77299;BME280;66361;52.034;20.656;2023-11-21T17:08:46;99913.63;;;-1.15;100.00
77299;BME280;66361;52.034;20.656;2023-11-21T17:12:49;99912.78;;;-1.17;100.00
77299;BME280;66361;52.034;20.656;2023-11-21T17:16:52;99925.78;;;-1.20;100.00
77299;BME280;66361;52.034;20.656;2023-11-21T17:20:55;99937.22;;;-1.30;100.00
77299;BME280;66361;52.034;20.656;2023-11-21T17:25:00;99943.19;;;-1.28;100.00
77299;BME280;66361;52.034;20.656;2023-11-21T17:29:03;99944.84;;;-1.22;100.00
77299;BME280;66361;52.034;20.656;2023-11-21T17:33:08;99958.66;;;-1.25;100.00
77299;BME280;66361;52.034;20.656;2023-11-21T17:37:11;99960.50;;;-1.30;100.00
77299;BME280;66361;52.034;20.656;2023-11-21T17:41:20;99963.94;;;-1.29;100.00
77299;BME280;66361;52.034;20.656;2023-11-21T17:45:24;99964.03;;;-1.34;100.00
77299;BME280;66361;52.034;20.656;2023-11-21T17:49:27;99969.16;;;-1.31;100.00
77299;BME280;66361;52.034;20.656;2023-11-21T17:53:33;99965.63;;;-1.28;100.00
77299;BME280;66361;52.034;20.656;2023-11-21T17:57:37;99972.66;;;-1.35;100.00
77299;BME280;66361;52.034;20.656;2023-11-21T18:01:41;99976.94;;;-1.32;100.00
77299;BME280;66361;52.034;20.656;2023-11-21T18:05:44;99986.47;;;-1.34;100.00
77299;BME280;66361;52.034;20.656;2023-11-21T18:09:48;99983.94;;;-1.37;100.00
77299;BME280;66361;52.034;20.656;2023-11-21T18:13:52;99989.06;;;-1.36;100.00
77299;BME280;66361;52.034;20.656;2023-11-21T18:17:55;99994.31;;;-1.39;100.00
77299;BME280;66361;52.034;20.656;2023-11-21T18:21:59;100005.53;;;-1.38;100.00
77299;BME280;66361;52.034;20.656;2023-11-21T18:26:02;100010.81;;;-1.45;100.00
77299;BME280;66361;52.034;20.656;2023-11-21T18:30:08;100008.19;;;-1.43;100.00
77299;BME280;66361;52.034;20.656;2023-11-21T18:34:12;100021.16;;;-1.46;100.00
77299;BME280;66361;52.034;20.656;2023-11-21T18:38:15;100019.44;;;-1.46;100.00
77299;BME280;66361;52.034;20.656;2023-11-21T18:42:18;100027.22;;;-1.46;100.00
77299;BME280;66361;52.034;20.656;2023-11-21T18:46:24;100036.75;;;-1.49;100.00
77299;BME280;66361;52.034;20.656;2023-11-21T18:50:26;100033.31;;;-1.50;100.00
77299;BME280;66361;52.034;20.656;2023-11-21T18:54:30;100036.78;;;-1.51;100.00
77299;BME280;66361;52.034;20.656;2023-11-21T18:58:34;100029.91;;;-1.52;100.00
77299;BME280;66361;52.034;20.656;2023-11-21T19:02:39;100038.53;;;-1.53;100.00
77299;BME280;66361;52.034;20.656;2023-11-21T19:06:44;100043.72;;;-1.54;100.00
77299;BME280;66361;52.034;20.656;2023-11-21T19:10:48;100056.59;;;-1.50;100.00
77299;BME280;66361;52.034;20.656;2023-11-21T19:14:51;100049.72;;;-1.51;100.00
77299;BME280;66361;52.034;20.656;2023-11-21T19:18:56;100051.44;;;-1.50;100.00
77299;BME280;66361;52.034;20.656;2023-11-21T19:23:00;100060.09;;;-1.52;100.00
77299;BME280;66361;52.034;20.656;2023-11-21T19:27:08;100079.91;;;-1.51;100.00
77299;BME280;66361;52.034;20.656;2023-11-21T19:31:15;100085.94;;;-1.51;100.00
77299;BME280;66361;52.034;20.656;2023-11-21T19:35:19;100082.59;;;-1.56;100.00
77299;BME280;66361;52.034;20.656;2023-11-21T19:39:22;100098.13;;;-1.56;100.00
77299;BME280;66361;52.034;20.656;2023-11-21T19:43:26;100092.13;;;-1.59;100.00
77299;BME280;66361;52.034;20.656;2023-11-21T19:47:32;100099.84;;;-1.58;100.00
77299;BME280;66361;52.034;20.656;2023-11-21T19:51:41;100103.28;;;-1.56;100.00
77299;BME280;66361;52.034;20.656;2023-11-21T19:55:44;100105.81;;;-1.53;100.00
77299;BME280;66361;52.034;20.656;2023-11-21T19:59:47;100111.00;;;-1.54;100.00
77299;BME280;66361;52.034;20.656;2023-11-21T20:03:51;100113.59;;;-1.54;100.00
77299;BME280;66361;52.034;20.656;2023-11-21T20:07:55;100119.69;;;-1.55;100.00
77299;BME280;66361;52.034;20.656;2023-11-21T20:11:58;100119.63;;;-1.54;100.00
77299;BME280;66361;52.034;20.656;2023-11-21T20:16:02;100130.84;;;-1.55;100.00
77299;BME280;66361;52.034;20.656;2023-11-21T20:20:06;100145.56;;;-1.57;100.00
77299;BME280;66361;52.034;20.656;2023-11-21T20:24:10;100146.38;;;-1.53;100.00
77299;BME280;66361;52.034;20.656;2023-11-21T20:28:14;100155.91;;;-1.55;100.00
77299;BME280;66361;52.034;20.656;2023-11-21T20:32:17;100152.47;;;-1.57;100.00
77299;BME280;66361;52.034;20.656;2023-11-21T20:36:26;100169.72;;;-1.58;100.00
77299;BME280;66361;52.034;20.656;2023-11-21T20:40:30;100176.63;;;-1.57;100.00
77299;BME280;66361;52.034;20.656;2023-11-21T20:44:33;100179.22;;;-1.58;100.00
77299;BME280;66361;52.034;20.656;2023-11-21T20:48:37;100189.59;;;-1.60;100.00
77299;BME280;66361;52.034;20.656;2023-11-21T20:52:40;100203.34;;;-1.56;100.00
77299;BME280;66361;52.034;20.656;2023-11-21T20:56:45;100196.53;;;-1.63;100.00
77299;BME280;66361;52.034;20.656;2023-11-21T21:00:50;100211.25;;;-1.68;100.00
77299;BME280;66361;52.034;20.656;2023-11-21T21:04:54;100214.72;;;-1.68;100.00